createdAt,value
2023-01-19T00:01:45.524Z,96645.16
2023-01-19T00:04:14.798Z,96654.69
2023-01-19T00:06:44.083Z,96660.31
2023-01-19T00:09:13.275Z,96661.88
2023-01-19T00:11:42.523Z,96667.13
2023-01-19T00:14:11.680Z,96679.44
2023-01-19T00:16:40.751Z,96668.34
2023-01-19T00:19:11.558Z,96656.44
2023-01-19T00:21:40.728Z,96649.72
2023-01-19T00:24:11.391Z,96662.88
2023-01-19T00:26:42.948Z,96673.13
2023-01-19T00:29:13.030Z,96677.47
2023-01-19T00:31:42.689Z,96669.94
2023-01-19T00:34:13.172Z,96662.03
2023-01-19T00:36:42.809Z,96665.22
2023-01-19T00:39:12.040Z,96657.25
2023-01-19T00:41:58.611Z,96654.09
2023-01-19T00:44:27.833Z,96660.81
2023-01-19T00:46:56.885Z,96669.88
2023-01-19T00:49:27.402Z,96661.09
2023-01-19T00:51:56.520Z,96674.28
2023-01-19T00:54:28.036Z,96678.66
2023-01-19T00:56:57.199Z,96683.09
2023-01-19T00:59:27.050Z,96692.22
2023-01-19T01:01:56.361Z,96692.94
2023-01-19T01:04:27.059Z,96689.63
2023-01-19T01:06:56.198Z,96687.25
2023-01-19T01:09:25.438Z,96693.69
2023-01-19T01:11:54.742Z,96699.16
2023-01-19T01:14:24.951Z,96700.06
2023-01-19T01:16:55.079Z,96708.06
2023-01-19T01:19:24.262Z,96688.22
2023-01-19T01:21:55.691Z,96681.16
2023-01-19T01:24:28.026Z,96684.38
2023-01-19T01:26:57.112Z,96687.56
2023-01-19T01:29:26.147Z,96687.56
2023-01-19T01:31:55.308Z,96681.97
2023-01-19T01:34:24.423Z,96678.78
2023-01-19T01:36:55.053Z,96677.22
2023-01-19T01:39:24.162Z,96681.63
2023-01-19T01:41:53.175Z,96684.78
2023-01-19T01:44:52.232Z,96692.28
2023-01-19T01:47:29.967Z,96689.91
2023-01-19T01:50:09.109Z,96694.25
2023-01-19T01:53:06.340Z,96699.31
2023-01-19T01:55:38.234Z,96705.59
2023-01-19T01:58:10.388Z,96700.88
2023-01-19T02:00:55.006Z,96688.31
2023-01-19T02:03:26.781Z,96693.88
2023-01-19T02:05:59.330Z,96696.28
2023-01-19T02:08:54.249Z,96702.63
2023-01-19T02:11:41.536Z,96715.41
2023-01-19T02:14:10.626Z,96711.88
2023-01-19T02:16:39.991Z,96714.31
2023-01-19T02:19:12.429Z,96719.47
2023-01-19T02:21:53.820Z,96710.75
2023-01-19T02:24:24.982Z,96706.41
2023-01-19T02:26:54.872Z,96704.03
2023-01-19T02:29:27.317Z,96702.81
2023-01-19T02:31:59.814Z,96706.78
2023-01-19T02:34:29.719Z,96700.38
2023-01-19T02:37:06.565Z,96690.88
2023-01-19T02:39:45.202Z,96695.63
2023-01-19T02:42:23.441Z,96692.44
2023-01-19T02:44:55.721Z,96695.66
2023-01-19T02:47:25.413Z,96696.03
2023-01-19T02:49:58.367Z,96695.63
2023-01-19T02:52:29.248Z,96703.50
2023-01-19T02:55:14.748Z,96706.69
2023-01-19T02:57:58.898Z,96703.84
2023-01-19T03:00:40.309Z,96705.88
2023-01-19T03:03:27.094Z,96713.84
2023-01-19T03:06:04.803Z,96713.03
2023-01-19T03:08:46.515Z,96710.66
2023-01-19T03:11:17.593Z,96713.06
2023-01-19T03:13:52.525Z,96706.00
2023-01-19T03:16:27.129Z,96705.22
2023-01-19T03:19:06.913Z,96706.81
2023-01-19T03:21:39.912Z,96716.31
2023-01-19T03:24:11.673Z,96720.69
2023-01-19T03:26:45.539Z,96724.25
2023-01-19T03:29:17.535Z,96717.94
2023-01-19T03:31:50.307Z,96724.69
2023-01-19T03:34:22.160Z,96725.06
2023-01-19T03:36:56.118Z,96725.81
2023-01-19T03:39:28.263Z,96719.03
2023-01-19T03:42:04.214Z,96715.91
2023-01-19T03:44:37.499Z,96716.38
2023-01-19T03:47:08.961Z,96726.22
2023-01-19T03:49:38.988Z,96722.66
2023-01-19T03:52:08.099Z,96729.78
2023-01-19T03:54:37.616Z,96725.81
2023-01-19T03:57:08.231Z,96721.09
2023-01-19T03:59:37.439Z,96722.72
2023-01-19T04:02:06.604Z,96717.97
2023-01-19T04:04:39.904Z,96725.91
2023-01-19T04:07:11.577Z,96733.31
2023-01-19T04:09:40.725Z,96729.81
2023-01-19T04:12:11.236Z,96727.44
2023-01-19T04:14:40.683Z,96721.13
2023-01-19T04:17:10.435Z,96735.00
2023-01-19T04:19:39.627Z,96736.19
2023-01-19T04:22:08.835Z,96728.69
2023-01-19T04:24:38.013Z,96732.22
2023-01-19T04:27:07.226Z,96731.44
2023-01-19T04:29:37.750Z,96725.91
2023-01-19T04:32:07.421Z,96727.47
2023-01-19T04:34:36.762Z,96732.22
2023-01-19T04:37:05.927Z,96741.34
2023-01-19T04:39:35.066Z,96736.97
2023-01-19T04:42:04.169Z,96741.69
2023-01-19T04:44:33.467Z,96744.91
2023-01-19T04:47:03.998Z,96724.31
2023-01-19T04:49:33.169Z,96723.91
2023-01-19T04:52:02.462Z,96732.22
2023-01-19T04:54:32.099Z,96723.50
2023-01-19T04:57:01.217Z,96722.34
2023-01-19T04:59:30.476Z,96721.94
2023-01-19T05:01:59.671Z,96730.66
2023-01-19T05:04:30.522Z,96738.19
2023-01-19T05:06:59.671Z,96741.34
2023-01-19T05:09:28.787Z,96754.47
2023-01-19T05:11:57.934Z,96761.59
2023-01-19T05:14:27.183Z,96779.00
2023-01-19T05:16:56.260Z,96792.09
2023-01-19T05:19:25.443Z,96796.44
2023-01-19T05:21:56.075Z,96795.63
2023-01-19T05:24:25.304Z,96808.28
2023-01-19T05:26:54.446Z,96811.84
2023-01-19T05:29:23.962Z,96822.53
2023-01-19T05:31:53.197Z,96825.31
2023-01-19T05:34:22.585Z,96819.38
2023-01-19T05:36:51.707Z,96822.53
2023-01-19T05:39:22.509Z,96814.66
2023-01-19T05:41:51.785Z,96807.88
2023-01-19T05:44:20.872Z,96799.56
2023-01-19T05:46:49.987Z,96794.81
2023-01-19T05:49:19.075Z,96779.78
2023-01-19T05:51:48.115Z,96772.66
2023-01-19T05:54:17.272Z,96778.19
2023-01-19T05:56:47.710Z,96784.56
2023-01-19T05:59:21.682Z,96783.72
2023-01-19T06:01:51.000Z,96784.13
2023-01-19T06:04:21.083Z,96793.25
2023-01-19T06:06:50.561Z,96801.16
2023-01-19T06:09:20.406Z,96821.75
2023-01-19T06:11:51.036Z,96843.16
2023-01-19T06:14:20.224Z,96849.09
2023-01-19T06:16:49.361Z,96840.00
2023-01-19T06:19:18.563Z,96846.34
2023-01-19T06:21:52.374Z,96854.25
2023-01-19T06:24:22.059Z,96838.41
2023-01-19T06:26:52.894Z,96855.81
2023-01-19T06:29:22.219Z,96859.78
2023-01-19T06:31:51.494Z,96866.50
2023-01-19T06:34:20.842Z,96863.34
2023-01-19T06:36:51.032Z,96861.38
2023-01-19T06:39:21.244Z,96865.31
2023-01-19T06:41:50.537Z,96859.00
2023-01-19T06:44:21.243Z,96866.09
2023-01-19T06:46:50.490Z,96856.19
2023-01-19T06:49:19.651Z,96851.44
2023-01-19T06:51:51.180Z,96851.06
2023-01-19T06:54:20.693Z,96861.34
2023-01-19T06:56:49.849Z,96873.22
2023-01-19T06:59:25.922Z,96870.84
2023-01-19T07:01:56.687Z,96870.06
2023-01-19T07:04:27.153Z,96884.72
2023-01-19T07:06:56.492Z,96880.34
2023-01-19T07:09:26.215Z,96878.00
2023-01-19T07:11:56.214Z,96866.88
2023-01-19T07:14:31.111Z,96872.81
2023-01-19T07:17:04.473Z,96875.25
2023-01-19T07:19:35.005Z,96890.69
2023-01-19T07:22:04.326Z,96897.38
2023-01-19T07:24:34.343Z,96905.25
2023-01-19T07:27:03.447Z,96920.28
2023-01-19T07:29:34.310Z,96920.69
2023-01-19T07:32:03.524Z,96934.16
2023-01-19T07:34:32.825Z,96935.38
2023-01-19T07:37:02.213Z,96949.25
2023-01-19T07:39:36.710Z,96942.50
2023-01-19T07:42:08.757Z,96940.56
2023-01-19T07:44:40.561Z,96962.75
2023-01-19T07:47:12.700Z,96957.19
2023-01-19T07:49:42.222Z,96962.75
2023-01-19T07:52:12.071Z,96962.72
2023-01-19T07:54:41.644Z,96971.44
2023-01-19T07:57:10.787Z,96961.94
2023-01-19T07:59:41.266Z,96971.44
2023-01-19T08:02:12.026Z,96983.75
2023-01-19T08:04:41.373Z,96975.41
2023-01-19T08:07:10.995Z,96980.94
2023-01-19T08:09:40.086Z,96978.56
2023-01-19T08:12:09.228Z,96986.47
2023-01-19T08:14:38.385Z,96991.22
2023-01-19T08:17:08.981Z,96989.63
2023-01-19T08:19:41.315Z,96994.44
2023-01-19T08:22:11.144Z,96984.53
2023-01-19T08:24:40.202Z,96984.91
2023-01-19T08:27:11.319Z,96990.47
2023-01-19T08:29:41.016Z,96981.75
2023-01-19T08:32:11.868Z,96998.38
2023-01-19T08:34:41.244Z,96987.28
2023-01-19T08:37:10.809Z,96986.50
2023-01-19T08:39:40.075Z,96988.09
2023-01-19T08:42:09.580Z,96990.47
2023-01-19T08:44:46.698Z,96990.09
2023-01-19T08:47:24.094Z,96995.25
2023-01-19T08:49:53.364Z,96988.94
2023-01-19T08:52:24.768Z,96989.72
2023-01-19T08:54:54.162Z,96996.06
2023-01-19T08:57:28.820Z,96987.72
2023-01-19T08:59:58.135Z,96985.72
2023-01-19T09:02:29.396Z,96983.41
2023-01-19T09:04:58.966Z,96986.94
2023-01-19T09:07:30.576Z,96985.75
2023-01-19T09:10:02.522Z,96981.00
2023-01-19T09:12:32.297Z,96995.28
2023-01-19T09:15:01.800Z,97002.38
2023-01-19T09:17:32.729Z,97007.94
2023-01-19T09:20:04.805Z,97002.03
2023-01-19T09:22:34.492Z,96999.66
2023-01-19T09:25:03.692Z,96998.47
2023-01-19T09:27:32.896Z,97003.59
2023-01-19T09:30:02.330Z,97005.56
2023-01-19T09:32:32.853Z,97009.94
2023-01-19T09:35:01.986Z,97011.13
2023-01-19T09:37:31.355Z,97019.47
2023-01-19T09:40:00.731Z,97020.25
2023-01-19T09:42:40.751Z,97019.88
2023-01-19T09:45:22.619Z,97016.69
2023-01-19T09:47:55.944Z,97025.81
2023-01-19T09:50:33.038Z,97013.13
2023-01-19T09:53:14.119Z,97015.91
2023-01-19T09:55:44.213Z,97021.44
2023-01-19T09:58:16.590Z,97025.00
2023-01-19T10:00:54.452Z,97042.44
2023-01-19T10:03:27.679Z,97048.38
2023-01-19T10:06:03.655Z,97040.06
2023-01-19T10:08:40.284Z,97034.91
2023-01-19T10:11:22.980Z,97040.47
2023-01-19T10:13:54.219Z,97035.72
2023-01-19T10:16:35.223Z,97038.88
2023-01-19T10:19:28.718Z,97049.97
2023-01-19T10:22:01.479Z,97047.59
2023-01-19T10:24:39.026Z,97046.03
2023-01-19T10:27:23.738Z,97040.88
2023-01-19T10:29:53.361Z,97046.03
2023-01-19T10:32:26.052Z,97051.59
2023-01-19T10:34:58.193Z,97059.91
2023-01-19T10:37:33.404Z,97050.78
2023-01-19T10:40:20.977Z,97051.56
2023-01-19T10:42:50.133Z,97061.88
2023-01-19T10:45:23.855Z,97060.28
2023-01-19T10:47:56.445Z,97061.06
2023-01-19T10:50:30.800Z,97063.44
2023-01-19T10:53:03.906Z,97063.06
2023-01-19T10:55:38.157Z,97070.19
2023-01-19T10:58:27.429Z,97056.28
2023-01-19T11:00:56.756Z,97066.19
2023-01-19T11:03:29.203Z,97068.13
2023-01-19T11:06:32.971Z,97076.88
2023-01-19T11:09:17.756Z,97076.88
2023-01-19T11:11:51.112Z,97085.19
2023-01-19T11:14:23.711Z,97096.66
2023-01-19T11:16:56.243Z,97091.50
2023-01-19T11:19:32.476Z,97103.00
2023-01-19T11:22:27.529Z,97102.19
2023-01-19T11:25:01.239Z,97111.75
2023-01-19T11:27:33.136Z,97108.56
2023-01-19T11:30:10.435Z,97120.13
2023-01-19T11:32:39.660Z,97113.00
2023-01-19T11:35:36.486Z,97119.75
2023-01-19T11:38:19.236Z,97126.09
2023-01-19T11:40:54.889Z,97117.00
2023-01-19T11:43:36.580Z,97119.78
2023-01-19T11:46:18.245Z,97120.56
2023-01-19T11:48:57.471Z,97122.16
2023-01-19T11:51:33.443Z,97114.19
2023-01-19T11:54:16.393Z,97118.53
2023-01-19T11:56:52.117Z,97119.69
2023-01-19T11:59:23.234Z,97119.28
2023-01-19T12:01:57.555Z,97115.72
2023-01-19T12:04:31.656Z,97115.72
2023-01-19T12:07:07.572Z,97124.84
2023-01-19T12:09:44.005Z,97124.09
2023-01-19T12:12:22.433Z,97126.88
2023-01-19T12:15:00.479Z,97134.84
2023-01-19T12:17:33.137Z,97135.66
2023-01-19T12:20:14.570Z,97142.78
2023-01-19T12:22:55.897Z,97149.94
2023-01-19T12:25:35.491Z,97150.31
2023-01-19T12:28:05.026Z,97155.50
2023-01-19T12:30:34.936Z,97157.06
2023-01-19T12:33:35.998Z,97157.88
2023-01-19T12:36:11.527Z,97164.22
2023-01-19T12:38:51.296Z,97172.94
2023-01-19T12:41:27.388Z,97170.56
2023-01-19T12:44:25.343Z,97172.94
2023-01-19T12:47:03.484Z,97168.19
2023-01-19T12:49:41.175Z,97171.34
2023-01-19T12:52:30.841Z,97180.09
2023-01-19T12:55:06.051Z,97184.88
2023-01-19T12:57:42.024Z,97184.44
2023-01-19T13:00:33.900Z,97178.50
2023-01-19T13:03:06.703Z,97177.72
2023-01-19T13:05:53.583Z,97178.50
2023-01-19T13:08:25.950Z,97182.47
2023-01-19T13:11:22.483Z,97188.81
2023-01-19T13:14:34.912Z,97199.94
2023-01-19T13:17:33.189Z,97199.91
2023-01-19T13:20:32.604Z,97197.53
2023-01-19T13:23:19.850Z,97197.13
2023-01-19T13:26:16.598Z,97201.47
2023-01-19T13:28:50.405Z,97206.28
2023-01-19T13:31:21.052Z,97207.09
2023-01-19T13:33:55.026Z,97210.25
2023-01-19T13:36:29.986Z,97212.63
2023-01-19T13:39:02.721Z,97219.34
2023-01-19T13:41:37.505Z,97221.31
2023-01-19T13:44:14.876Z,97226.88
2023-01-19T13:46:44.132Z,97230.88
2023-01-19T13:49:22.554Z,97226.53
2023-01-19T13:52:17.170Z,97226.53
2023-01-19T13:54:51.146Z,97229.31
2023-01-19T13:57:28.959Z,97229.31
2023-01-19T14:00:17.915Z,97219.78
2023-01-19T14:03:00.188Z,97229.31
2023-01-19T14:05:33.352Z,97230.91
2023-01-19T14:08:13.880Z,97230.13
2023-01-19T14:10:45.937Z,97236.03
2023-01-19T14:13:18.460Z,97242.38
2023-01-19T14:15:56.699Z,97251.50
2023-01-19T14:18:31.240Z,97261.03
2023-01-19T14:21:06.098Z,97266.56
2023-01-19T14:23:51.035Z,97279.22
2023-01-19T14:26:47.635Z,97289.09
2023-01-19T14:29:32.792Z,97281.16
2023-01-19T14:32:15.768Z,97283.13
2023-01-19T14:34:47.384Z,97278.38
2023-01-19T14:37:22.272Z,97283.06
2023-01-19T14:39:55.789Z,97285.03
2023-01-19T14:42:32.982Z,97287.00
2023-01-19T14:45:09.410Z,97288.19
2023-01-19T14:47:42.385Z,97277.44
2023-01-19T14:50:23.694Z,97293.66
2023-01-19T14:52:58.536Z,97283.75
2023-01-19T14:55:35.794Z,97292.44
2023-01-19T14:58:11.352Z,97282.16
2023-01-19T15:00:40.802Z,97286.88
2023-01-19T15:03:10.901Z,97288.41
2023-01-19T15:05:41.210Z,97293.97
2023-01-19T15:08:13.547Z,97295.56
2023-01-19T15:10:43.019Z,97289.16
2023-01-19T15:13:18.621Z,97291.13
2023-01-19T15:15:49.856Z,97290.72
2023-01-19T15:18:26.283Z,97291.50
2023-01-19T15:21:02.687Z,97294.66
2023-01-19T15:23:33.952Z,97288.28
2023-01-19T15:26:05.970Z,97295.00
2023-01-19T15:28:35.202Z,97301.69
2023-01-19T15:31:05.313Z,97312.75
2023-01-19T15:33:34.527Z,97319.06
2023-01-19T15:36:05.459Z,97332.16
2023-01-19T15:38:35.986Z,97334.47
2023-01-19T15:41:05.285Z,97332.88
2023-01-19T15:43:34.445Z,97325.25
2023-01-19T15:46:04.042Z,97338.69
2023-01-19T15:48:33.317Z,97334.72
2023-01-19T15:51:02.474Z,97338.63
2023-01-19T15:53:34.925Z,97357.97
2023-01-19T15:56:06.264Z,97356.75
2023-01-19T15:58:36.450Z,97352.00
2023-01-19T16:01:07.386Z,97347.22
2023-01-19T16:03:37.108Z,97349.53
2023-01-19T16:06:07.276Z,97350.22
2023-01-19T16:08:36.939Z,97353.41
2023-01-19T16:11:10.523Z,97351.03
2023-01-19T16:13:40.180Z,97351.44
2023-01-19T16:16:19.465Z,97352.56
2023-01-19T16:18:48.988Z,97348.53
2023-01-19T16:21:18.773Z,97351.38
2023-01-19T16:23:48.333Z,97365.13
2023-01-19T16:26:32.673Z,97369.78
2023-01-19T16:29:08.065Z,97387.03
2023-01-19T16:31:38.217Z,97389.91
2023-01-19T16:34:08.151Z,97389.47
2023-01-19T16:36:43.193Z,97386.22
2023-01-19T16:39:15.204Z,97386.03
2023-01-19T16:41:47.631Z,97395.06
2023-01-19T16:44:17.856Z,97390.13
2023-01-19T16:46:49.810Z,97397.84
2023-01-19T16:49:28.080Z,97385.09
2023-01-19T16:51:58.689Z,97386.88
2023-01-19T16:54:30.003Z,97386.63
2023-01-19T16:57:00.842Z,97387.63
2023-01-19T16:59:30.360Z,97390.72
2023-01-19T17:02:02.144Z,97396.59
2023-01-19T17:04:31.783Z,97401.59
2023-01-19T17:07:01.549Z,97395.91
2023-01-19T17:09:30.757Z,97384.75
2023-01-19T17:12:01.393Z,97394.91
2023-01-19T17:14:30.709Z,97403.25
2023-01-19T17:17:02.994Z,97418.00
2023-01-19T17:19:32.285Z,97410.44
2023-01-19T17:22:01.444Z,97423.78
2023-01-19T17:24:30.686Z,97424.31
2023-01-19T17:27:01.611Z,97424.19
2023-01-19T17:29:30.817Z,97416.25
2023-01-19T17:32:00.049Z,97412.84
2023-01-19T17:34:29.279Z,97408.69
2023-01-19T17:37:03.031Z,97402.63
2023-01-19T17:39:32.497Z,97387.53
2023-01-19T17:42:05.125Z,97391.66
2023-01-19T17:44:34.500Z,97399.91
2023-01-19T17:47:03.667Z,97403.81
2023-01-19T17:49:32.864Z,97419.69
2023-01-19T17:52:02.192Z,97416.44
2023-01-19T17:54:31.697Z,97431.50
2023-01-19T17:57:00.977Z,97429.16
2023-01-19T17:59:32.740Z,97422.94
2023-01-19T18:02:02.234Z,97417.44
2023-01-19T18:04:32.312Z,97396.13
2023-01-19T18:07:02.268Z,97389.00
2023-01-19T18:09:31.812Z,97396.19
2023-01-19T18:12:01.063Z,97391.44
2023-01-19T18:14:33.086Z,97401.34
2023-01-19T18:17:02.409Z,97396.97
2023-01-19T18:19:32.687Z,97404.06
2023-01-19T18:22:02.697Z,97409.28
2023-01-19T18:24:32.056Z,97413.19
2023-01-19T18:27:01.205Z,97416.22
2023-01-19T18:29:32.965Z,97419.78
2023-01-19T18:32:03.577Z,97432.47
2023-01-19T18:34:33.584Z,97428.56
2023-01-19T18:37:02.944Z,97434.44
2023-01-19T18:39:32.144Z,97437.63
2023-01-19T18:42:01.391Z,97434.34
2023-01-19T18:44:30.581Z,97440.63
2023-01-19T18:46:59.760Z,97435.03
2023-01-19T18:49:30.584Z,97435.19
2023-01-19T18:52:00.209Z,97425.34
2023-01-19T18:54:29.399Z,97425.50
2023-01-19T18:56:58.620Z,97426.47
2023-01-19T18:59:27.798Z,97427.44
2023-01-19T19:01:59.179Z,97423.09
2023-01-19T19:04:30.164Z,97419.91
2023-01-19T19:06:59.427Z,97426.22
2023-01-19T19:09:29.009Z,97435.72
2023-01-19T19:11:58.937Z,97452.56
2023-01-19T19:14:28.241Z,97445.31
2023-01-19T19:16:57.426Z,97456.06
2023-01-19T19:19:26.789Z,97460.53
2023-01-19T19:21:57.289Z,97463.19
2023-01-19T19:24:26.722Z,97447.00
2023-01-19T19:26:55.859Z,97452.38
2023-01-19T19:29:24.953Z,97457.03
2023-01-19T19:31:54.153Z,97461.41
2023-01-19T19:34:25.193Z,97462.47
2023-01-19T19:36:54.383Z,97469.53
2023-01-19T19:39:25.359Z,97458.63
2023-01-19T19:41:54.500Z,97474.91
2023-01-19T19:44:23.700Z,97472.03
2023-01-19T19:46:52.896Z,97480.78
2023-01-19T19:49:22.075Z,97470.13
2023-01-19T19:51:51.567Z,97473.34
2023-01-19T19:54:20.851Z,97467.88
2023-01-19T19:56:52.350Z,97472.25
2023-01-19T19:59:21.586Z,97478.44
2023-01-19T20:01:52.349Z,97479.47
2023-01-19T20:04:22.980Z,97474.63
2023-01-19T20:06:52.249Z,97476.22
2023-01-19T20:09:21.651Z,97490.53
2023-01-19T20:11:53.031Z,97474.00
2023-01-19T20:14:22.622Z,97492.56
2023-01-19T20:16:52.683Z,97487.75
2023-01-19T20:19:21.876Z,97492.56
2023-01-19T20:21:56.247Z,97492.13
2023-01-19T20:24:25.447Z,97496.78
2023-01-19T20:26:57.269Z,97494.47
2023-01-19T20:29:26.675Z,97501.59
2023-01-19T20:31:57.689Z,97507.13
2023-01-19T20:34:33.052Z,97494.91
2023-01-19T20:37:04.134Z,97496.38
2023-01-19T20:39:35.382Z,97502.19
2023-01-19T20:42:11.727Z,97496.28
2023-01-19T20:44:41.548Z,97505.03
2023-01-19T20:47:11.389Z,97507.00
2023-01-19T20:49:40.823Z,97504.59
2023-01-19T20:52:09.981Z,97499.50
2023-01-19T20:54:40.097Z,97489.72
2023-01-19T20:57:10.855Z,97492.00
2023-01-19T20:59:40.962Z,97484.78
2023-01-19T21:02:15.028Z,97501.03
2023-01-19T21:04:44.875Z,97487.97
2023-01-19T21:07:14.271Z,97502.16
2023-01-19T21:09:43.625Z,97499.63
2023-01-19T21:12:16.224Z,97494.84
2023-01-19T21:14:46.009Z,97496.75
2023-01-19T21:17:15.243Z,97484.41
2023-01-19T21:19:44.979Z,97477.97
2023-01-19T21:22:14.497Z,97470.63
2023-01-19T21:24:44.589Z,97476.13
2023-01-19T21:27:15.458Z,97479.34
2023-01-19T21:29:45.009Z,97474.81
2023-01-19T21:32:17.047Z,97472.97
2023-01-19T21:34:48.230Z,97468.28
2023-01-19T21:37:17.510Z,97462.13
2023-01-19T21:39:47.304Z,97469.09
2023-01-19T21:42:22.958Z,97466.22
2023-01-19T21:44:52.497Z,97472.84
2023-01-19T21:47:21.995Z,97465.56
2023-01-19T21:49:51.328Z,97476.97
2023-01-19T21:52:22.557Z,97479.66
2023-01-19T21:54:51.712Z,97477.41
2023-01-19T21:57:22.498Z,97471.00
2023-01-19T21:59:52.481Z,97480.44
2023-01-19T22:02:37.192Z,97475.66
2023-01-19T22:05:09.310Z,97493.97
2023-01-19T22:07:40.141Z,97483.06
2023-01-19T22:10:12.398Z,97470.28
2023-01-19T22:12:43.355Z,97475.09
2023-01-19T22:15:14.068Z,97478.28
2023-01-19T22:17:44.379Z,97481.47
2023-01-19T22:20:14.189Z,97485.41
2023-01-19T22:22:43.550Z,97491.72
2023-01-19T22:25:13.080Z,97485.97
2023-01-19T22:27:43.901Z,97467.88
2023-01-19T22:30:13.399Z,97458.25
2023-01-19T22:32:42.561Z,97465.94
2023-01-19T22:35:12.247Z,97478.84
2023-01-19T22:37:47.472Z,97486.25
2023-01-19T22:40:17.248Z,97486.53
2023-01-19T22:42:48.666Z,97481.22
2023-01-19T22:45:18.121Z,97494.66
2023-01-19T22:47:48.005Z,97500.19
2023-01-19T22:50:17.862Z,97501.25
2023-01-19T22:52:47.329Z,97501.59
2023-01-19T22:55:18.074Z,97506.69
2023-01-19T22:57:48.720Z,97511.56
2023-01-19T23:00:19.952Z,97485.78
2023-01-19T23:02:49.370Z,97500.09
2023-01-19T23:05:18.593Z,97487.25
2023-01-19T23:07:47.855Z,97475.06
2023-01-19T23:10:17.878Z,97481.13
2023-01-19T23:12:49.824Z,97465.88
2023-01-19T23:15:19.072Z,97459.75
2023-01-19T23:17:52.905Z,97465.31
2023-01-19T23:20:22.281Z,97461.50
2023-01-19T23:22:51.612Z,97469.59
2023-01-19T23:25:23.543Z,97467.53
2023-01-19T23:27:54.114Z,97464.69
2023-01-19T23:30:23.403Z,97454.50
2023-01-19T23:32:52.679Z,97462.31
2023-01-19T23:35:21.842Z,97462.94
2023-01-19T23:37:51.090Z,97456.53
2023-01-19T23:40:20.559Z,97441.00
2023-01-19T23:42:49.721Z,97454.78
2023-01-19T23:45:20.320Z,97449.34
2023-01-19T23:47:49.551Z,97452.25
2023-01-19T23:50:19.497Z,97453.06
2023-01-19T23:52:48.801Z,97469.59
2023-01-19T23:55:18.319Z,97475.03
2023-01-19T23:57:47.571Z,97484.97
